• Join FlightAware (Why Join?)
  • Login
  • US Flag 
01:03PM EDT


 

Airport Tracker/Info


-or-


 

Live Flight TrackerFlight Track Log ✈ ASQ4252 ✈ 13-Jul-2013 ✈ KMSP - KEWR

Flight Track Log - Related Links

Times and Time Zones

All times are in EDT time to prevent confusion due to time zone crossing. See the ASQ4252 flight status page for this flight to view local times or setup timezone preferences in your user account.

Time Position Orientation Groundspeed Altitude Reporting Facility
EDT Latitude Longitude Course Direction KTS MPH feet Rate Location/Type
12:31PM 44.8333 -93.2167 120° Southeast 180 207 2,500  Level Minneapolis TRACON
12:32PM 44.7753 -93.1111 128° Southeast 264 304 5,100 2,100 Climbing Minneapolis Center
12:33PM 44.7228 -93.0317 133° Southeast 274 315 7,700 2,220 Climbing Minneapolis Center
12:34PM 44.8091 -92.6518 141° Southeast  Level Estimated
12:34PM 44.6697 -92.9506 133° Southeast 280 322 9,800  Level Minneapolis Center
12:35PM 44.7073 -92.6703 187° South  Level FlightAware Approximate
12:35PM 44.6167 -92.8661 131° Southeast 285 328 11,600  Level Minneapolis Center
12:36PM 44.6878 -92.5157 120° Southeast  Level Estimated
12:36PM 44.5647 -92.7619 125° Southeast 322 371 13,200  Level Minneapolis Center
12:37PM 44.5111 -92.6525 124° Southeast 341 392 14,200 900 Climbing Minneapolis Center
12:38PM 44.4394 -92.5072 125° Southeast 378 435 15,100 780 Climbing Minneapolis Center
12:39PM 44.3753 -92.3817 126° Southeast 397 457 15,900 720 Climbing Minneapolis Center
12:40PM 44.3097 -92.2514 125° Southeast 408 470 16,700 840 Climbing Minneapolis Center
12:41PM 44.2428 -92.1203 125° Southeast 414 476 17,700 960 Climbing Minneapolis Center
12:42PM 44.1783 -91.9919 125° Southeast 409 471 18,800 1,080 Climbing Minneapolis Center
12:43PM 44.1144 -91.8664 125° Southeast 401 461 20,000 1,260 Climbing Minneapolis Center
12:45PM 44.0389 -91.7164 125° Southeast 395 455 21,500 1,260 Climbing Minneapolis Center
12:46PM 43.9794 -91.5989 125° Southeast 393 452 22,700 1,140 Climbing Minneapolis Center
12:47PM 43.9164 -91.4786 126° Southeast 391 450 23,900 1,140 Climbing Minneapolis Center
12:48PM 43.8492 -91.3636 129° Southeast 388 447 25,100 1,140 Climbing Minneapolis Center
12:49PM 43.7803 -91.2528 131° Southeast 384 442 26,300 1,200 Climbing Minneapolis Center
12:50PM 43.6997 -91.1197 130° Southeast 380 437 27,700 1,200 Climbing Minneapolis Center
12:51PM 43.6319 -91.0097 130° Southeast 378 435 28,900 1,140 Climbing Minneapolis Center
12:52PM 43.5650 -90.9008 130° Southeast 377 434 30,100 1,140 Climbing Minneapolis Center
12:53PM 43.4978 -90.7925 131° Southeast 374 430 31,300 1,140 Climbing Minneapolis Center
12:54PM 43.4575 -90.6697 114° Southeast 365 420 32,500 1,140 Climbing Minneapolis Center
12:55PM 43.4358 -90.5131 101° East 353 406 33,700 960 Climbing Minneapolis Center
12:56PM 43.4186 -90.3817 100° East 352 405 34,600 600 Climbing Minneapolis Center
12:57PM 43.4014 -90.2489 100° East 354 407 35,000 180 Climbing Minneapolis Center
12:58PM 43.3794 -90.0997 101° East 376 433 35,000  Level Minneapolis Center
12:59PM 43.3586 -89.9461 101° East 403 464 35,000  Level Minneapolis Center
01:00PM 43.3361 -89.7864 101° East 420 483 35,000  Level Minneapolis Center
01:01PM 43.3089 -89.5931 101° East 437 503 35,000  Level Minneapolis Center
01:02PM 43.2844 -89.4264 101° East 445 512 35,000  Level Minneapolis Center
01:03PM 43.2603 -89.2636 101° East 439 505 35,000  Level Minneapolis Center
01:04PM 43.2375 -89.1094 101° East 423 487 35,000  Level Minneapolis Center
01:05PM 43.2114 -88.9294 101° East 415 478 35,000  Level Minneapolis Center
01:06PM 43.1831 -88.7422 102° East 427 491 35,000  Level Chicago Center
01:08PM 43.1578 -88.5794 102° East 438 504 35,000  Level Chicago Center
01:09PM 43.1286 -88.3883 102° East 444 511 35,000  Level Chicago Center
01:10PM 43.1039 -88.2239 102° East 444 511 35,000  Level Chicago Center
01:11PM 43.0792 -88.0597 102° East 443 510 35,000  Level Chicago Center
01:12PM 43.0536 -87.8975 102° East 440 506 35,000  Level Chicago Center
01:13PM 43.0283 -87.7342 102° East 440 506 35,000  Level Chicago Center
01:14PM 42.9969 -87.5447 103° East 439 505 35,000  Level Chicago Center
01:15PM 42.9711 -87.3819 102° East 440 506 35,000  Level Chicago Center
01:16PM 42.9472 -87.2369 103° East 441 507 35,000  Level Chicago Center
01:17PM 42.9203 -87.0739 103° East 442 509 35,000  Level Chicago Center
01:18PM 42.8881 -86.8783 103° East 443 510 35,000  Level Chicago Center
01:19PM 42.8603 -86.7164 103° East 442 509 35,000  Level Chicago Center
01:20PM 42.8333 -86.5547 103° East 441 507 35,000  Level Chicago Center
01:21PM 42.8053 -86.3958 103° East 439 505 35,000  Level Chicago Center
01:22PM 42.7781 -86.2378 103° East 435 501 35,000  Level Chicago Center
01:23PM 42.7461 -86.0586 104° East 416 479 35,000  Level Chicago Center
01:24PM 42.7208 -85.9136 103° East 404 465 35,000  Level Chicago Center
01:25PM 42.6961 -85.7719 103° East 393 452 35,000  Level Chicago Center
01:26PM 42.6719 -85.6347 103° East 380 437 35,000  Level Chicago Center
01:27PM 42.6428 -85.4706 104° East 375 432 35,000  Level Chicago Center
01:28PM 42.6192 -85.3381 104° East 366 421 35,000  Level Chicago Center
01:29PM 42.5936 -85.2008 104° East 374 430 35,000  Level Chicago Center
01:30PM 42.5681 -85.0567 103° East 389 448 35,000  Level Chicago Center
01:31PM 42.5403 -84.9111 104° East 399 459 35,000  Level Chicago Center
01:32PM 42.5147 -84.7675 104° East 396 456 35,000  Level Chicago Center
01:33PM 42.4839 -84.6097 105° East 365 420 35,000  Level Chicago Center
01:34PM 42.4583 -84.4761 104° East 366 421 35,000  Level Chicago Center
01:35PM 42.4314 -84.3617 108° East 363 418 35,000  Level Cleveland Center
01:36PM 42.4067 -84.2222 103° East 368 423 35,000  Level Cleveland Center
01:37PM 42.3797 -84.0858 105° East 373 429 35,000  Level Cleveland Center
01:38PM 42.3528 -83.9408 104° East 379 436 35,000  Level Cleveland Center
01:39PM 42.3236 -83.7989 105° East 384 442 35,000  Level Cleveland Center
01:40PM 42.2958 -83.6628 105° East 384 442 35,000  Level Cleveland Center
01:41PM 42.2647 -83.5042 105° East 395 455 35,000  Level Cleveland Center
01:42PM 42.2350 -83.3542 105° East 413 475 35,000  Level Cleveland Center
01:43PM 42.1994 -83.1786 105° East 420 483 35,000  Level Cleveland Center
01:44PM 42.1694 -83.0317 105° East 425 489 35,000  Level Cleveland Center
01:45PM 42.1369 -82.8819 106° East 419 482 35,000  Level Cleveland Center
01:46PM 42.1108 -82.7356 103° East 409 471 35,000  Level Cleveland Center
01:47PM 42.0736 -82.5917 109° East 403 464 35,000  Level Cleveland Center
01:48PM 42.0492 -82.4456 103° East 403 464 35,000  Level Cleveland Center
01:49PM 42.0158 -82.2964 107° East 403 464 35,000  Level Cleveland Center
01:50PM 41.9847 -82.1447 105° East 408 470 35,000  Level Cleveland Center
01:51PM 41.9533 -81.9903 105° East 425 489 35,000  Level Cleveland Center
01:52PM 41.9197 -81.8333 106° East 425 489 35,000  Level Cleveland Center
01:53PM 41.9047 -81.6850 98° East 440 506 35,000  Level Cleveland Center
01:54PM 41.8894 -81.5175 97° East 447 514 35,000  Level Cleveland Center
01:55PM 41.8739 -81.3500 97° East 447 514 35,000  Level Cleveland Center
01:56PM 41.8583 -81.1769 97° East 454 522 35,000  Level Cleveland Center
01:57PM 41.8406 -80.9928 97° East 460 529 35,000  Level Cleveland Center
01:58PM 41.8242 -80.8256 97° East 460 529 35,000  Level Cleveland Center
01:59PM 41.8058 -80.6528 98° East 465 535 35,000  Level Cleveland Center
02:00PM 41.7911 -80.4828 97° East 465 535 35,000  Level Cleveland Center
02:01PM 41.7742 -80.3158 98° East 459 528 35,000  Level Cleveland Center
02:02PM 41.7569 -80.1461 98° East 467 537 35,000  Level Cleveland Center
02:03PM 41.7375 -79.9767 99° East 467 537 35,000  Level Cleveland Center
02:04PM 41.7219 -79.8069 97° East 460 529 35,000  Level Cleveland Center
02:05PM 41.7061 -79.6569 98° East 465 535 35,000  Level Cleveland Center
02:06PM 41.6858 -79.4739 98° East 459 528 35,000  Level Cleveland Center
02:07PM 41.6694 -79.3183 98° East 467 537 35,000  Level Cleveland Center
02:08PM 41.6508 -79.1464 98° East 467 537 35,000  Level Cleveland Center
02:09PM 41.6297 -78.9775 99° East 467 537 35,000  Level Cleveland Center
02:10PM 41.6128 -78.8056 97° East 467 537 35,000  Level Cleveland Center
02:11PM 41.5933 -78.6342 99° East 467 537 35,000 -360 Level Cleveland Center
02:13PM 41.5500 -78.2889 99° East 475 547 33,900 -900 Descending New York Center
02:14PM 41.5303 -78.1067 98° East 461 531 32,300 -1,500 Descending New York Center
02:15PM 41.5083 -77.9517 101° East 441 507 31,000 -660 Descending New York Center
02:16PM 41.4867 -77.7914 100° East 434 499 31,000  Level New York Center
02:17PM 41.4650 -77.6286 100° East 439 505 31,000  Level New York Center
02:18PM 41.4422 -77.4794 101° East 447 514 31,000  Level New York Center
02:19PM 41.4139 -77.3161 103° East 447 514 31,000  Level New York Center
02:20PM 41.3792 -77.1497 105° East 458 527 31,000 -120 Level New York Center
02:21PM 41.3442 -76.9861 106° East 463 533 30,800 -960 Descending New York Center
02:22PM 41.3106 -76.8283 106° East 458 527 29,100 -1,860 Descending New York Center
02:23PM 41.2753 -76.6594 105° East 458 527 27,200 -1,860 Descending New York Center
02:24PM 41.2342 -76.4819 107° East 458 527 25,400 -2,580 Descending New York Center
02:25PM 41.2000 -76.3192 106° East 463 533 22,000 -3,000 Descending New York Center
02:26PM 41.1672 -76.1731 107° East 442 509 19,400 -2,100 Descending New York Center
02:27PM 41.1272 -76.0433 112° Southeast 398 458 17,900 -1,620 Descending New York Center
02:28PM 41.0703 -75.9178 121° Southeast 388 447 16,200 -1,500 Descending New York Center
02:29PM 41.0250 -75.8069 118° Southeast 393 452 15,000 -660 Descending New York Center
02:30PM 40.9894 -75.6614 108° East 380 437 15,000 -60 Level New York Center
02:31PM 40.9614 -75.5331 106° East 388 447 14,900 -1,080 Descending New York Center
02:32PM 40.9278 -75.3822 106° East 388 447 12,900 -1,680 Descending New York Center
02:33PM 40.8997 -75.2486 105° East 382 440 11,600 -1,200 Descending New York Center
02:34PM 40.8728 -75.1289 107° East 376 433 10,500 -1,560 Descending New York Center
02:35PM 40.8478 -75.0147 106° East 340 391 8,500 -1,740 Descending New York Center
02:36PM 40.8228 -74.9008 106° East 302 348 7,000 -900 Descending New York Center
02:37PM 40.8033 -74.8008 104° East 284 327 6,700 -480 Descending New York Center
02:38PM 40.8167 -74.7139 79° East 240 276 6,100 -360 Descending New York Center
02:39PM 40.8753 -74.6433 42° Northeast 273 314 6,000 -180 Descending New York Center
02:40PM 40.9167 -74.6000 38° Northeast 303 349 5,900 -660 Descending New York TRACON
02:41PM 40.9667 -74.5167 52° Northeast 290 334 5,000 -420 Descending New York TRACON
02:42PM 41.0167 -74.4500 45° Northeast 277 319 5,100  Climbing New York TRACON
02:43PM 41.0000 -74.3500 102° East 269 310 5,000 -420 Descending New York TRACON
02:44PM 40.9833 -74.2500 102° East 253 291 4,300 -540 Descending New York TRACON
02:45PM 40.9667 -74.1667 105° East 245 282 4,000 -300 Descending New York TRACON
02:46PM 40.9167 -74.1000 135° Southeast 258 297 3,700 -540 Descending New York TRACON
02:47PM 40.8667 -74.0667 153° Southeast 230 265 3,000 -720 Descending New York TRACON
02:48PM 40.8000 -74.1000 201° Southwest 215 247 2,300 -720 Descending New York TRACON